Price, Texas
Current Conditions -  °F | °C
As of 1:35 PM on Thursday 18 Dec 2014 (Local Time) from KRFI Reporting Station
Overcast Overcast  
Wind Chill: 10°   Ceiling: 700
Heat Index: 10°   Visibility: 7mi
Dew Point:   Wind: 3mph
Humidity: 93%   Direction: 20°NNE
Pressure: 30.13"   Gusts: NA
Location:  32.13°N, 94.94°W
Report Text: KRFI 181935Z AUTO 02003KT 7SM OVC007 10/09 A3013 RMK AO2 T01000089
Loading
Personal Weather Stations






























Interactive Weather Map New forecast layout! Learn more

10-Day Weather Forecast

Advertisements
Track Severe Weather on mobile